createdAt,value
2022-10-29T00:02:08.609Z,18.22
2022-10-29T00:07:40.286Z,18.12
2022-10-29T00:13:12.113Z,18.03
2022-10-29T00:18:43.687Z,17.88
2022-10-29T00:24:15.209Z,17.86
2022-10-29T00:29:47.406Z,17.81
2022-10-29T00:35:18.885Z,17.73
2022-10-29T00:40:55.002Z,17.69
2022-10-29T00:46:26.671Z,17.5
2022-10-29T00:51:58.641Z,17.43
2022-10-29T00:57:30.182Z,17.5
2022-10-29T01:03:01.710Z,17.53
2022-10-29T01:08:33.697Z,17.38
2022-10-29T01:14:05.125Z,17.34
2022-10-29T01:19:36.834Z,17.39
2022-10-29T01:25:08.588Z,17.29
2022-10-29T01:30:40.507Z,17.39
2022-10-29T01:36:12.207Z,17.43
2022-10-29T01:41:48.288Z,17.48
2022-10-29T01:47:19.875Z,17.39
2022-10-29T01:52:51.834Z,17.34
2022-10-29T01:58:23.264Z,17.28
2022-10-29T02:03:55.211Z,17.27
2022-10-29T02:09:26.729Z,17.16
2022-10-29T02:14:59.267Z,17.14
2022-10-29T02:20:30.136Z,17.16
2022-10-29T02:26:02.060Z,17.19
2022-10-29T02:31:33.630Z,17.23
2022-10-29T02:37:05.554Z,17.2
2022-10-29T02:42:41.506Z,17.31
2022-10-29T02:48:13.186Z,17.27
2022-10-29T02:53:45.114Z,17.28
2022-10-29T02:59:17.167Z,17.31
2022-10-29T03:04:48.338Z,17.26
2022-10-29T03:10:20.062Z,17.12
2022-10-29T03:15:52.719Z,17.1
2022-10-29T03:21:23.559Z,16.95
2022-10-29T03:26:55.282Z,16.95
2022-10-29T03:32:26.949Z,16.92
2022-10-29T03:37:58.875Z,16.82
2022-10-29T03:43:34.882Z,16.75
2022-10-29T03:49:06.526Z,16.63
2022-10-29T03:54:38.714Z,16.62
2022-10-29T04:00:10.237Z,16.62
2022-10-29T04:05:41.794Z,16.67
2022-10-29T04:11:14.264Z,16.68
2022-10-29T04:16:45.402Z,16.75
2022-10-29T04:23:54.494Z,16.78
2022-10-29T04:28:41.686Z,16.69
2022-10-29T04:33:20.310Z,16.79
2022-10-29T04:38:52.008Z,16.71
2022-10-29T04:44:30.407Z,16.73
2022-10-29T04:50:01.887Z,16.57
2022-10-29T04:55:33.848Z,16.57
2022-10-29T05:01:05.803Z,16.55
2022-10-29T05:06:37.047Z,16.48
2022-10-29T05:12:08.806Z,16.42
2022-10-29T05:17:40.504Z,16.28
2022-10-29T05:23:12.368Z,16.11
2022-10-29T05:28:43.999Z,16.08
2022-10-29T05:34:15.710Z,16.05
2022-10-29T05:39:47.602Z,16.01
2022-10-29T05:45:23.631Z,15.96
2022-10-29T05:50:55.352Z,15.81
2022-10-29T05:56:27.294Z,15.86
2022-10-29T06:01:58.924Z,15.87
2022-10-29T06:07:30.519Z,15.9
2022-10-29T06:13:02.246Z,15.83
2022-10-29T06:18:34.190Z,15.84
2022-10-29T06:24:05.718Z,15.82
2022-10-29T06:29:37.678Z,15.75
2022-10-29T06:35:09.118Z,15.72
2022-10-29T06:40:40.855Z,15.79
2022-10-29T06:46:17.287Z,15.89
2022-10-29T06:51:48.737Z,15.89
2022-10-29T06:57:20.453Z,15.91
2022-10-29T07:02:52.859Z,16.01
2022-10-29T07:08:24.169Z,16.03
2022-10-29T07:13:55.845Z,16.07
2022-10-29T07:19:27.517Z,16.29
2022-10-29T07:25:01.089Z,16.43
2022-10-29T07:30:30.854Z,16.58
2022-10-29T07:36:02.607Z,16.64
2022-10-29T07:41:34.256Z,16.72
2022-10-29T07:47:12.424Z,16.88
2022-10-29T07:52:44.814Z,17.11
2022-10-29T07:58:17.574Z,17.43
2022-10-29T08:03:49.067Z,17.82
2022-10-29T08:09:21.038Z,17.98
2022-10-29T08:14:53.677Z,18.18
2022-10-29T08:20:24.559Z,18.09
2022-10-29T08:25:56.071Z,18.14
2022-10-29T08:31:27.798Z,18.29
2022-10-29T08:36:59.525Z,18.26
2022-10-29T08:42:31.212Z,18.42
2022-10-29T08:48:07.389Z,18.49
2022-10-29T08:53:39.120Z,18.49
2022-10-29T08:59:10.814Z,18.62
2022-10-29T09:04:42.614Z,18.81
2022-10-29T09:10:14.373Z,19.36
2022-10-29T09:15:46.053Z,19.62
2022-10-29T09:21:17.950Z,19.94
2022-10-29T09:26:49.667Z,20.32
2022-10-29T09:32:21.452Z,20.39
2022-10-29T09:37:53.267Z,20.78
2022-10-29T09:43:27.682Z,21.27
2022-10-29T09:49:03.826Z,21.51
2022-10-29T09:54:35.502Z,21.88
2022-10-29T10:00:07.259Z,21.8
2022-10-29T10:05:38.971Z,21.98
2022-10-29T10:11:10.670Z,21.94
2022-10-29T10:16:43.390Z,22.26
2022-10-29T10:22:15.481Z,22.46
2022-10-29T10:27:45.830Z,22.62
2022-10-29T10:33:17.580Z,22.88
2022-10-29T10:38:49.284Z,22.99
2022-10-29T10:44:21.262Z,23.32
2022-10-29T10:49:57.114Z,23.27
2022-10-29T10:55:28.890Z,23.36
2022-10-29T11:01:01.110Z,23.76
2022-10-29T11:06:32.342Z,23.99
2022-10-29T11:12:04.072Z,24.14
2022-10-29T11:17:35.800Z,24.34
2022-10-29T11:23:07.513Z,24.21
2022-10-29T11:28:39.208Z,24.81
2022-10-29T11:34:10.973Z,25.13
2022-10-29T11:39:43.042Z,25.26
2022-10-29T11:45:14.384Z,25.42
2022-10-29T11:50:50.931Z,25.18
2022-10-29T11:56:22.263Z,25.38
2022-10-29T12:01:54.036Z,25.63
2022-10-29T12:07:25.723Z,25.76
2022-10-29T12:12:57.689Z,26.06
2022-10-29T12:18:29.187Z,26.07
2022-10-29T12:24:01.196Z,25.98
2022-10-29T12:29:32.655Z,25.94
2022-10-29T12:35:04.666Z,26.13
2022-10-29T12:40:36.092Z,26.12
2022-10-29T12:46:19.811Z,26.14
2022-10-29T12:51:43.988Z,26.02
2022-10-29T12:57:15.675Z,26.07
2022-10-29T13:02:47.623Z,25.94
2022-10-29T13:08:19.125Z,26.04
2022-10-29T13:13:51.154Z,26.04
2022-10-29T13:19:22.535Z,26.02
2022-10-29T13:24:54.317Z,25.83
2022-10-29T13:30:26.174Z,25.95
2022-10-29T13:35:57.864Z,26.07
2022-10-29T13:41:29.595Z,26.06
2022-10-29T13:47:01.760Z,25.87
2022-10-29T13:52:37.502Z,25.96
2022-10-29T13:58:09.222Z,26.08
2022-10-29T14:03:41.271Z,25.95
2022-10-29T14:09:13.080Z,26.0
2022-10-29T14:14:45.196Z,26.09
2022-10-29T14:20:16.559Z,26.18
2022-10-29T14:25:48.310Z,26.03
2022-10-29T14:31:20.026Z,25.94
2022-10-29T14:36:51.807Z,26.03
2022-10-29T14:42:23.551Z,25.86
2022-10-29T14:47:55.258Z,25.74
2022-10-29T14:53:31.389Z,25.65
2022-10-29T14:59:03.110Z,25.57
2022-10-29T15:04:34.822Z,25.36
2022-10-29T15:10:06.584Z,25.31
2022-10-29T15:15:38.361Z,25.18
2022-10-29T15:21:10.085Z,25.02
2022-10-29T15:26:41.796Z,24.84
2022-10-29T15:32:13.547Z,24.66
2022-10-29T15:37:45.290Z,24.5
2022-10-29T15:43:16.933Z,24.36
2022-10-29T15:48:48.719Z,24.16
2022-10-29T15:54:24.875Z,24.08
2022-10-29T15:59:56.630Z,23.96
2022-10-29T16:05:28.279Z,23.77
2022-10-29T16:11:00.046Z,23.63
2022-10-29T16:16:31.816Z,23.44
2022-10-29T16:22:03.499Z,23.3
2022-10-29T16:27:35.252Z,23.17
2022-10-29T16:33:07.002Z,23.0
2022-10-29T16:38:38.845Z,22.86
2022-10-29T16:44:10.438Z,22.72
2022-10-29T16:49:42.135Z,22.59
2022-10-29T16:55:19.542Z,22.61
2022-10-29T17:00:50.925Z,22.6
2022-10-29T17:06:21.906Z,22.49
2022-10-29T17:11:53.498Z,22.38
2022-10-29T17:17:25.303Z,22.35
2022-10-29T17:22:57.289Z,22.34
2022-10-29T17:28:28.635Z,22.36
2022-10-29T17:34:00.380Z,22.32
2022-10-29T17:39:32.072Z,22.22
2022-10-29T17:45:04.166Z,22.17
2022-10-29T17:50:35.550Z,22.05
2022-10-29T17:56:11.758Z,21.97
2022-10-29T18:01:43.649Z,21.82
2022-10-29T18:07:15.206Z,21.81
2022-10-29T18:12:46.984Z,21.83
2022-10-29T18:18:19.117Z,21.7
2022-10-29T18:23:50.479Z,21.65
2022-10-29T18:29:22.399Z,21.56
2022-10-29T18:34:54.075Z,21.42
2022-10-29T18:40:25.644Z,21.28
2022-10-29T18:45:57.371Z,21.2
2022-10-29T18:51:32.202Z,21.16
2022-10-29T18:57:10.872Z,21.09
2022-10-29T19:02:41.970Z,21.04
2022-10-29T19:08:13.529Z,21.04
2022-10-29T19:13:45.151Z,21.0
2022-10-29T19:19:19.759Z,20.96
2022-10-29T19:24:49.645Z,21.01
2022-10-29T19:30:21.139Z,21.03
2022-10-29T19:35:52.947Z,21.06
2022-10-29T19:41:24.690Z,20.98
2022-10-29T19:46:56.399Z,20.87
2022-10-29T19:52:28.113Z,20.7
2022-10-29T19:58:04.250Z,20.67
2022-10-29T20:03:35.950Z,20.64
2022-10-29T20:09:07.679Z,20.54
2022-10-29T20:14:39.444Z,20.48
2022-10-29T20:20:15.888Z,20.49
2022-10-29T20:25:42.938Z,20.46
2022-10-29T20:31:15.019Z,20.44
2022-10-29T20:36:46.490Z,20.44
2022-10-29T20:42:18.086Z,20.35
2022-10-29T20:47:49.829Z,20.33
2022-10-29T20:53:21.586Z,20.26
2022-10-29T20:58:57.686Z,20.24
2022-10-29T21:04:29.537Z,20.09
2022-10-29T21:10:01.194Z,20.01
2022-10-29T21:15:32.979Z,19.94
2022-10-29T21:21:05.090Z,19.82
2022-10-29T21:26:36.348Z,19.68
2022-10-29T21:32:10.243Z,19.55
2022-10-29T21:37:39.922Z,19.48
2022-10-29T21:43:11.914Z,19.31
2022-10-29T21:48:43.354Z,19.1
2022-10-29T21:54:15.089Z,19.11
2022-10-29T21:59:53.174Z,19.1
2022-10-29T22:05:24.887Z,19.14
2022-10-29T22:10:56.626Z,19.19
2022-10-29T22:16:28.334Z,19.08
2022-10-29T22:22:00.052Z,19.05
2022-10-29T22:27:31.751Z,19.03
2022-10-29T22:33:03.480Z,19.0
2022-10-29T22:38:35.190Z,18.94
2022-10-29T22:44:06.913Z,18.95
2022-10-29T22:49:38.704Z,18.88
2022-10-29T22:55:10.417Z,18.79
2022-10-29T23:00:46.560Z,18.8
2022-10-29T23:06:18.228Z,18.75
2022-10-29T23:11:49.899Z,18.72
2022-10-29T23:17:21.641Z,18.62
2022-10-29T23:22:53.435Z,18.64
2022-10-29T23:28:25.110Z,18.61
2022-10-29T23:33:57.204Z,18.5
2022-10-29T23:39:28.576Z,18.47
2022-10-29T23:45:03.640Z,18.45
2022-10-29T23:50:32.049Z,18.48
2022-10-29T23:56:03.779Z,18.36
